Time;durP1;ratioP1;P1;durP2;ratioP2;P2;SDS_P1;SDS_P2;PMS_P1;PMS_P2;Temp;Humidity;BMP_temperature;BMP_pressure;BME280_temperature;BME280_humidity;BME280_pressure;Samples;Min_cycle;Max_cycle;Signal;HPM_P1;HPM_P2
2023/12/27 00:01:20;;;;;;;7.25;1.30;;;4.70;99.90;;;;;;5009211;28;20041;-71
2023/12/27 00:03:45;;;;;;;5.72;1.50;;;4.70;99.90;;;;;;5006190;28;20033;-72
2023/12/27 00:06:11;;;;;;;7.05;1.35;;;4.70;99.90;;;;;;5013014;28;20491;-72
2023/12/27 00:08:37;;;;;;;3.78;1.20;;;4.60;99.90;;;;;;5012616;28;20052;-72
2023/12/27 00:11:03;;;;;;;9.98;1.40;;;4.70;99.90;;;;;;5012896;28;20508;-71
2023/12/27 00:13:28;;;;;;;6.15;1.48;;;4.60;99.90;;;;;;5013715;28;20030;-73
2023/12/27 00:15:54;;;;;;;9.77;1.80;;;4.60;99.90;;;;;;5014344;28;20053;-72
2023/12/27 00:18:19;;;;;;;4.20;1.05;;;4.60;99.90;;;;;;5008768;28;20480;-72
2023/12/27 00:20:47;;;;;;;7.22;2.05;;;4.60;99.90;;;;;;5008109;28;20040;-73
2023/12/27 00:23:13;;;;;;;5.90;1.15;;;4.60;99.90;;;;;;5009365;28;20104;-72
2023/12/27 00:25:38;;;;;;;5.15;1.50;;;4.50;99.90;;;;;;5013463;28;20483;-71
2023/12/27 00:28:04;;;;;;;6.18;1.10;;;4.50;99.90;;;;;;5012653;28;20026;-72
2023/12/27 00:30:30;;;;;;;6.97;1.40;;;4.50;99.90;;;;;;5009792;28;20423;-72
2023/12/27 00:32:56;;;;;;;8.18;1.45;;;4.50;99.90;;;;;;5006113;28;20128;-72
2023/12/27 00:35:21;;;;;;;5.70;1.30;;;4.40;99.90;;;;;;5012969;28;20045;-72
2023/12/27 00:37:47;;;;;;;5.22;1.15;;;4.40;99.90;;;;;;5010267;28;20104;-72
2023/12/27 00:40:13;;;;;;;2.72;0.80;;;4.50;99.90;;;;;;5010387;28;20395;-72
2023/12/27 00:42:38;;;;;;;8.73;1.58;;;4.50;99.90;;;;;;5012255;28;20026;-71
2023/12/27 00:45:04;;;;;;;8.18;1.25;;;4.60;99.90;;;;;;5012107;28;20034;-72
2023/12/27 00:47:30;;;;;;;11.00;1.35;;;4.70;99.90;;;;;;5014744;28;20037;-72
2023/12/27 00:49:55;;;;;;;4.10;1.40;;;4.70;99.90;;;;;;5015957;28;20786;-71
2023/12/27 00:52:21;;;;;;;8.57;1.60;;;4.70;99.90;;;;;;5019526;28;20021;-71
2023/12/27 00:54:46;;;;;;;3.92;1.33;;;4.80;99.90;;;;;;5020403;28;20068;-71
2023/12/27 00:57:12;;;;;;;8.77;2.00;;;4.80;99.90;;;;;;5011878;28;20037;-72
2023/12/27 00:59:37;;;;;;;9.50;2.05;;;4.80;99.90;;;;;;5019313;28;20033;-71
2023/12/27 01:02:03;;;;;;;7.95;1.50;;;4.70;99.90;;;;;;5010293;28;20021;-72
2023/12/27 01:04:28;;;;;;;3.92;1.33;;;4.60;99.90;;;;;;5017171;28;20033;-73
2023/12/27 01:06:54;;;;;;;5.93;1.92;;;4.50;99.90;;;;;;5014334;28;20030;-71
2023/12/27 01:09:20;;;;;;;7.32;1.27;;;4.50;99.90;;;;;;5013124;28;20038;-72
2023/12/27 01:11:45;;;;;;;9.27;1.75;;;4.50;99.90;;;;;;5014744;28;20525;-71
2023/12/27 01:14:11;;;;;;;13.27;1.88;;;4.40;99.90;;;;;;5015155;28;20440;-71
2023/12/27 01:16:36;;;;;;;7.10;1.42;;;4.40;99.90;;;;;;5017072;28;20132;-71
2023/12/27 01:19:02;;;;;;;9.52;1.20;;;4.30;99.90;;;;;;5015204;28;20387;-71
2023/12/27 01:21:27;;;;;;;8.93;1.50;;;4.30;99.90;;;;;;5013071;28;20019;-71
2023/12/27 01:23:53;;;;;;;3.95;1.00;;;4.30;99.90;;;;;;5014694;28;20395;-71
2023/12/27 01:26:18;;;;;;;9.77;1.73;;;4.30;99.90;;;;;;5018210;28;20110;-72
2023/12/27 01:28:44;;;;;;;4.88;1.33;;;4.20;99.90;;;;;;5018691;28;20025;-71
2023/12/27 01:31:09;;;;;;;9.30;1.52;;;4.20;99.90;;;;;;5013337;28;20101;-72
2023/12/27 01:33:35;;;;;;;7.35;1.70;;;4.20;99.90;;;;;;5011069;28;20105;-72
2023/12/27 01:36:08;;;;;;;5.05;0.93;;;4.10;99.90;;;;;;5011205;28;20025;-71
2023/12/27 01:38:33;;;;;;;7.15;1.48;;;4.00;99.90;;;;;;5010843;28;20037;-72
2023/12/27 01:40:59;;;;;;;6.05;1.30;;;4.00;99.90;;;;;;5017664;28;20646;-72
2023/12/27 01:43:25;;;;;;;9.38;1.75;;;3.90;99.90;;;;;;5017249;28;20030;-72
2023/12/27 01:45:50;;;;;;;6.80;1.67;;;3.90;99.90;;;;;;5013967;28;20818;-71
2023/12/27 01:48:20;;;;;;;6.75;1.20;;;4.00;99.90;;;;;;5015490;28;20125;-71
2023/12/27 01:50:50;;;;;;;7.03;1.55;;;3.90;99.90;;;;;;5016288;28;20037;-72
2023/12/27 01:53:16;;;;;;;11.50;1.70;;;4.00;99.90;;;;;;5010561;28;20024;-71
2023/12/27 01:55:43;;;;;;;5.60;1.33;;;3.90;99.90;;;;;;5011231;28;20037;-73
2023/12/27 01:58:10;;;;;;;12.15;1.70;;;4.00;99.90;;;;;;5015882;28;20050;-71
2023/12/27 02:00:39;;;;;;;6.10;2.20;;;4.00;99.90;;;;;;5017596;28;20017;-72
2023/12/27 02:03:05;;;;;;;8.32;1.70;;;4.00;99.90;;;;;;5012621;28;20021;-71
2023/12/27 02:05:31;;;;;;;9.25;1.60;;;4.00;99.90;;;;;;5019485;28;20083;-71
2023/12/27 02:07:57;;;;;;;8.77;1.63;;;4.00;99.90;;;;;;5015788;28;20034;-72
2023/12/27 02:10:23;;;;;;;4.18;1.20;;;3.90;99.90;;;;;;5011249;28;20041;-72
2023/12/27 02:12:49;;;;;;;5.50;1.23;;;3.90;99.90;;;;;;5016315;28;20848;-72
2023/12/27 02:15:14;;;;;;;8.35;1.70;;;3.90;99.90;;;;;;5015885;28;20116;-71
2023/12/27 02:17:40;;;;;;;5.22;2.17;;;3.90;99.90;;;;;;5016765;28;20893;-71
2023/12/27 02:20:06;;;;;;;8.32;1.33;;;3.90;99.90;;;;;;5016678;28;20492;-72
2023/12/27 02:22:34;;;;;;;10.65;1.55;;;3.90;99.90;;;;;;5015590;28;20033;-72
2023/12/27 02:25:00;;;;;;;5.47;1.58;;;3.90;99.90;;;;;;5017599;28;20571;-72
2023/12/27 02:27:25;;;;;;;9.65;1.52;;;3.90;99.90;;;;;;5016943;28;20047;-72
2023/12/27 02:29:51;;;;;;;7.35;1.40;;;3.80;99.90;;;;;;5012688;28;20037;-72
2023/12/27 02:32:16;;;;;;;14.88;1.77;;;3.80;99.90;;;;;;5015292;28;20120;-71
2023/12/27 02:34:42;;;;;;;9.27;1.60;;;3.80;99.90;;;;;;5017427;28;20033;-68
2023/12/27 02:37:07;;;;;;;6.60;2.03;;;3.80;99.90;;;;;;5015444;28;20485;-72
2023/12/27 02:39:33;;;;;;;5.43;1.13;;;3.80;99.90;;;;;;5012099;28;20024;-67
2023/12/27 02:41:58;;;;;;;14.48;1.77;;;3.80;99.90;;;;;;5015957;28;20609;-79
2023/12/27 02:44:27;;;;;;;9.45;1.73;;;3.80;99.90;;;;;;5015800;28;20096;-59
2023/12/27 02:46:53;;;;;;;9.35;1.48;;;3.70;99.90;;;;;;5018815;28;20431;-59
2023/12/27 02:49:19;;;;;;;10.70;1.60;;;3.60;99.90;;;;;;5014302;28;20384;-59
2023/12/27 02:51:44;;;;;;;7.30;1.45;;;3.70;99.90;;;;;;5017644;28;20079;-59
2023/12/27 02:54:10;;;;;;;7.22;1.20;;;3.60;99.90;;;;;;5016356;28;20424;-59
2023/12/27 02:56:35;;;;;;;11.52;2.47;;;3.60;99.90;;;;;;5020270;28;20462;-60
2023/12/27 02:59:01;;;;;;;5.22;1.25;;;3.60;99.90;;;;;;5019960;28;20116;-60
2023/12/27 03:01:26;;;;;;;7.93;1.60;;;3.50;99.90;;;;;;5013982;28;20034;-57
2023/12/27 03:03:51;;;;;;;9.30;1.63;;;3.50;99.90;;;;;;5017230;28;20042;-59
2023/12/27 03:06:17;;;;;;;5.72;1.63;;;3.50;99.90;;;;;;5021982;28;20372;-59
2023/12/27 03:08:43;;;;;;;12.77;1.80;;;3.50;99.90;;;;;;5020054;28;20029;-59
2023/12/27 03:11:08;;;;;;;5.47;1.42;;;3.50;99.90;;;;;;5019734;28;20048;-59
2023/12/27 03:13:34;;;;;;;8.27;1.15;;;3.50;99.90;;;;;;5019914;28;20013;-60
2023/12/27 03:16:06;;;;;;;4.68;1.35;;;3.50;99.90;;;;;;5020006;28;20033;-59
2023/12/27 03:18:33;;;;;;;3.67;1.45;;;3.50;99.90;;;;;;5019949;28;20698;-58
2023/12/27 03:20:59;;;;;;;8.57;1.75;;;3.50;99.90;;;;;;5017575;28;20029;-61
2023/12/27 03:23:25;;;;;;;6.50;1.20;;;3.50;99.90;;;;;;5019430;28;20052;-59
2023/12/27 03:25:50;;;;;;;6.88;1.33;;;3.60;99.90;;;;;;5019205;28;20025;-59
2023/12/27 03:28:16;;;;;;;7.25;2.13;;;3.60;99.90;;;;;;5015261;28;20371;-59
2023/12/27 03:30:41;;;;;;;13.20;2.20;;;3.60;99.90;;;;;;5019307;28;20036;-59
2023/12/27 03:33:07;;;;;;;4.82;2.10;;;3.60;99.90;;;;;;5015663;28;20029;-59
2023/12/27 03:35:32;;;;;;;14.68;3.47;;;3.60;99.90;;;;;;5015515;28;20104;-59
2023/12/27 03:37:58;;;;;;;14.75;3.78;;;3.60;99.90;;;;;;5019657;28;20025;-58
2023/12/27 03:40:23;;;;;;;12.98;4.07;;;3.50;99.90;;;;;;5020621;28;20029;-60
2023/12/27 03:42:49;;;;;;;15.70;4.10;;;3.50;99.90;;;;;;5018330;28;20454;-58
2023/12/27 03:45:17;;;;;;;15.82;4.07;;;3.40;99.90;;;;;;5019260;28;20108;-60
2023/12/27 03:47:43;;;;;;;14.02;3.55;;;3.40;99.90;;;;;;5019623;28;20029;-59
2023/12/27 03:50:09;;;;;;;7.57;2.95;;;3.40;99.90;;;;;;5018127;28;20076;-59
2023/12/27 03:52:34;;;;;;;11.82;3.13;;;3.30;99.90;;;;;;5019152;28;20044;-58
2023/12/27 03:55:00;;;;;;;5.93;2.53;;;3.30;99.90;;;;;;5017500;28;20896;-60
2023/12/27 03:57:25;;;;;;;5.95;2.35;;;3.30;99.90;;;;;;5019328;28;20427;-59
2023/12/27 03:59:51;;;;;;;14.68;3.00;;;3.20;99.90;;;;;;5019222;28;20038;-59
2023/12/27 04:02:16;;;;;;;8.45;1.95;;;3.20;99.90;;;;;;5015727;28;20390;-59
2023/12/27 04:04:42;;;;;;;15.13;2.00;;;3.20;99.90;;;;;;5019219;28;20029;-59
2023/12/27 04:07:07;;;;;;;7.90;2.13;;;3.10;99.90;;;;;;5019210;28;20018;-58
2023/12/27 04:09:33;;;;;;;6.55;1.90;;;3.10;99.90;;;;;;5020725;28;20087;-60
2023/12/27 04:11:59;;;;;;;11.27;2.00;;;3.10;99.90;;;;;;5019336;28;20036;-59
2023/12/27 04:14:24;;;;;;;10.63;1.88;;;3.10;99.90;;;;;;5018776;28;20020;-59
2023/12/27 04:16:50;;;;;;;11.40;1.50;;;3.10;99.90;;;;;;5022364;28;20064;-59
2023/12/27 04:19:15;;;;;;;6.95;1.85;;;3.10;99.90;;;;;;5025726;28;20052;-59
2023/12/27 04:21:42;;;;;;;7.65;1.38;;;3.10;99.90;;;;;;5027348;28;20037;-59
2023/12/27 04:24:09;;;;;;;10.98;1.58;;;3.00;99.90;;;;;;5026214;28;20025;-60
2023/12/27 04:26:39;;;;;;;10.93;1.60;;;3.00;99.90;;;;;;5025743;28;20021;-60
2023/12/27 04:29:09;;;;;;;5.47;1.65;;;3.00;99.90;;;;;;5025517;28;20060;-59
2023/12/27 04:31:36;;;;;;;7.57;1.38;;;2.90;99.90;;;;;;5025729;28;20056;-59
2023/12/27 04:34:01;;;;;;;9.32;1.58;;;2.90;99.90;;;;;;5025136;28;20087;-60
2023/12/27 04:36:27;;;;;;;4.55;1.05;;;2.90;99.90;;;;;;5025518;28;20096;-59
2023/12/27 04:38:52;;;;;;;5.88;1.45;;;2.90;99.90;;;;;;5025283;28;20030;-59
2023/12/27 04:41:18;;;;;;;5.95;1.00;;;2.80;99.90;;;;;;5025540;28;20026;-58
2023/12/27 04:43:43;;;;;;;3.03;1.33;;;2.80;99.90;;;;;;5026199;28;20029;-60
2023/12/27 04:46:10;;;;;;;3.13;1.00;;;2.80;99.90;;;;;;5025310;28;20029;-59
2023/12/27 04:48:36;;;;;;;5.43;1.60;;;2.80;99.90;;;;;;5025151;28;20819;-59
2023/12/27 04:51:01;;;;;;;4.53;1.05;;;2.70;99.90;;;;;;5024376;28;20029;-59
2023/12/27 04:53:27;;;;;;;7.30;1.42;;;2.70;99.90;;;;;;5025159;28;20030;-59
2023/12/27 04:55:52;;;;;;;3.30;1.10;;;2.70;99.90;;;;;;5024764;28;20033;-60
2023/12/27 04:58:18;;;;;;;7.10;1.10;;;2.70;99.90;;;;;;5023520;28;20083;-59
2023/12/27 05:00:43;;;;;;;5.32;1.48;;;2.70;99.90;;;;;;5021338;28;20104;-59
2023/12/27 05:03:09;;;;;;;8.55;0.95;;;2.70;99.90;;;;;;5021969;28;20442;-60
2023/12/27 05:05:34;;;;;;;3.75;1.10;;;2.70;99.90;;;;;;5025766;28;20057;-60
2023/12/27 05:07:59;;;;;;;5.72;1.10;;;2.70;99.90;;;;;;5023550;28;20033;-59
2023/12/27 05:10:25;;;;;;;3.35;0.90;;;2.70;99.90;;;;;;5025259;28;20029;-60
2023/12/27 05:12:53;;;;;;;4.28;1.00;;;2.70;99.90;;;;;;5027256;28;20489;-59
2023/12/27 05:15:19;;;;;;;3.50;0.93;;;2.70;99.90;;;;;;5022912;28;20029;-60
2023/12/27 05:17:45;;;;;;;2.78;0.93;;;2.70;99.90;;;;;;5025620;28;20032;-59
2023/12/27 05:20:11;;;;;;;7.57;1.25;;;2.70;99.90;;;;;;5024932;28;20054;-60
2023/12/27 05:22:39;;;;;;;6.28;0.95;;;2.60;99.90;;;;;;5025335;28;20503;-60
2023/12/27 05:25:08;;;;;;;6.35;1.02;;;2.60;99.90;;;;;;5023674;28;20026;-59
2023/12/27 05:27:34;;;;;;;8.45;1.15;;;2.60;99.90;;;;;;5024783;28;20033;-59
2023/12/27 05:29:59;;;;;;;2.72;0.73;;;2.50;99.90;;;;;;5018683;28;20037;-60
2023/12/27 05:32:25;;;;;;;4.25;0.90;;;2.50;99.90;;;;;;5023875;28;20022;-60
2023/12/27 05:34:53;;;;;;;5.28;1.23;;;2.50;99.90;;;;;;5022634;28;20112;-60
2023/12/27 05:37:19;;;;;;;8.35;1.15;;;2.50;99.90;;;;;;5018176;28;20034;-59
2023/12/27 05:39:45;;;;;;;6.00;1.20;;;2.40;99.90;;;;;;5018608;28;20384;-59
2023/12/27 05:42:11;;;;;;;8.75;1.77;;;2.40;99.90;;;;;;5021773;28;20080;-59
2023/12/27 05:44:36;;;;;;;7.70;0.95;;;2.40;99.90;;;;;;5021693;28;20060;-59
2023/12/27 05:47:02;;;;;;;9.52;1.55;;;2.40;99.90;;;;;;5017663;28;20025;-59
2023/12/27 05:49:27;;;;;;;5.97;1.15;;;2.30;99.90;;;;;;5023304;28;20041;-60
2023/12/27 05:51:53;;;;;;;3.25;0.90;;;2.30;99.90;;;;;;5021447;28;20033;-60
2023/12/27 05:54:18;;;;;;;4.05;1.23;;;2.30;99.90;;;;;;5021309;28;20467;-60
2023/12/27 05:56:44;;;;;;;5.53;1.30;;;2.20;99.90;;;;;;5021726;28;20133;-59
2023/12/27 05:59:10;;;;;;;6.85;1.23;;;2.20;99.90;;;;;;5021661;28;20053;-59
2023/12/27 06:01:35;;;;;;;6.93;0.93;;;2.20;99.90;;;;;;5017314;28;20030;-56
2023/12/27 06:04:03;;;;;;;4.43;0.90;;;2.20;99.90;;;;;;5019281;28;20036;-60
2023/12/27 06:06:29;;;;;;;3.97;1.20;;;2.30;99.90;;;;;;5022071;28;20036;-60
2023/12/27 06:08:55;;;;;;;4.82;1.27;;;2.20;99.90;;;;;;5020747;28;20018;-60
2023/12/27 06:11:20;;;;;;;5.13;1.25;;;2.30;99.90;;;;;;5015900;28;20071;-60
2023/12/27 06:13:46;;;;;;;4.40;1.38;;;2.30;99.90;;;;;;5017013;28;20608;-60
2023/12/27 06:16:11;;;;;;;10.52;1.48;;;2.30;99.90;;;;;;5020773;28;20025;-60
2023/12/27 06:18:37;;;;;;;3.38;0.93;;;2.30;99.90;;;;;;5022171;28;20029;-60
2023/12/27 06:21:02;;;;;;;7.40;1.23;;;2.30;99.90;;;;;;5019990;28;20026;-60
2023/12/27 06:23:28;;;;;;;6.18;1.00;;;2.30;99.90;;;;;;5021216;28;20024;-60
2023/12/27 06:25:54;;;;;;;8.15;1.25;;;2.20;99.90;;;;;;5020567;28;20031;-61
2023/12/27 06:28:20;;;;;;;4.43;1.02;;;2.20;99.90;;;;;;5019813;28;20041;-59
2023/12/27 06:30:47;;;;;;;5.07;1.17;;;2.10;99.90;;;;;;5022692;28;20424;-60
2023/12/27 06:33:12;;;;;;;10.48;1.58;;;2.10;99.90;;;;;;5018646;28;20498;-60
2023/12/27 06:35:38;;;;;;;2.75;0.85;;;2.10;99.90;;;;;;5019441;28;20041;-59
2023/12/27 06:38:03;;;;;;;4.00;1.10;;;2.00;99.90;;;;;;5020461;28;20026;-60
2023/12/27 06:40:29;;;;;;;6.25;1.30;;;2.00;99.90;;;;;;5020520;28;20029;-59
2023/12/27 06:42:54;;;;;;;7.05;1.23;;;2.00;99.90;;;;;;5020802;28;20056;-60
2023/12/27 06:45:20;;;;;;;4.78;1.58;;;1.90;99.90;;;;;;5020751;28;20454;-61
2023/12/27 06:47:45;;;;;;;4.90;1.20;;;1.80;99.90;;;;;;5020613;28;20026;-60
2023/12/27 06:50:11;;;;;;;6.75;1.20;;;1.80;99.90;;;;;;5017432;28;20456;-61
2023/12/27 06:52:37;;;;;;;6.25;1.17;;;1.80;99.90;;;;;;5020205;28;20033;-60
2023/12/27 06:55:02;;;;;;;6.15;1.50;;;1.70;99.90;;;;;;5014334;28;20105;-60
2023/12/27 06:57:28;;;;;;;5.28;1.05;;;1.70;99.90;;;;;;5020604;28;20117;-59
2023/12/27 06:59:53;;;;;;;4.38;1.17;;;1.70;99.90;;;;;;5020398;28;20410;-61
2023/12/27 07:02:19;;;;;;;8.52;1.17;;;1.70;99.90;;;;;;5014161;28;20477;-61
2023/12/27 07:04:45;;;;;;;4.95;0.98;;;1.70;99.90;;;;;;5018704;28;20037;-60
2023/12/27 07:07:10;;;;;;;3.80;1.00;;;1.60;99.90;;;;;;5020491;28;20017;-60
2023/12/27 07:09:36;;;;;;;5.15;1.20;;;1.60;99.90;;;;;;5015447;28;20052;-61
2023/12/27 07:12:02;;;;;;;8.02;1.10;;;1.60;99.90;;;;;;5019183;28;20029;-61
2023/12/27 07:14:27;;;;;;;7.18;0.98;;;1.60;99.90;;;;;;5016962;28;20025;-60
2023/12/27 07:16:53;;;;;;;8.02;1.40;;;1.50;99.90;;;;;;5014718;28;20045;-60
2023/12/27 07:19:18;;;;;;;5.00;1.05;;;1.50;99.90;;;;;;5013345;28;20063;-60
2023/12/27 07:21:44;;;;;;;8.95;1.27;;;1.40;99.90;;;;;;5014930;28;20025;-60
2023/12/27 07:24:09;;;;;;;7.65;1.30;;;1.40;99.90;;;;;;5019489;28;20018;-60
2023/12/27 07:26:35;;;;;;;5.30;1.10;;;1.40;99.90;;;;;;5019512;28;20041;-60
2023/12/27 07:29:00;;;;;;;6.20;1.20;;;1.30;99.90;;;;;;5021815;28;20064;-61
2023/12/27 07:31:26;;;;;;;5.85;1.33;;;1.30;99.90;;;;;;5019416;28;20025;-60
2023/12/27 07:33:51;;;;;;;5.57;0.98;;;1.30;99.90;;;;;;5018352;28;20507;-60
2023/12/27 07:36:17;;;;;;;6.80;1.60;;;1.30;99.90;;;;;;5015596;28;20021;-60
2023/12/27 07:38:42;;;;;;;10.50;1.27;;;1.30;99.90;;;;;;5019400;28;20120;-60
2023/12/27 07:41:08;;;;;;;3.30;0.98;;;1.30;99.90;;;;;;5019719;28;20399;-60
2023/12/27 07:43:35;;;;;;;6.07;1.17;;;1.30;99.90;;;;;;5017029;28;20040;-60
2023/12/27 07:46:01;;;;;;;7.35;1.35;;;1.40;99.90;;;;;;5015549;28;20029;-61
2023/12/27 07:48:27;;;;;;;8.50;1.23;;;1.40;99.90;;;;;;5011543;28;20112;-61
2023/12/27 07:50:52;;;;;;;9.57;1.40;;;1.40;99.90;;;;;;5012655;28;20116;-61
2023/12/27 07:53:18;;;;;;;7.07;1.05;;;1.40;99.90;;;;;;5011439;28;20018;-60
2023/12/27 07:55:43;;;;;;;9.90;1.80;;;1.40;99.90;;;;;;5017744;28;20200;-60
2023/12/27 07:58:09;;;;;;;7.47;1.00;;;1.40;99.90;;;;;;5019141;28;20462;-60
2023/12/27 08:00:35;;;;;;;12.57;1.58;;;1.40;99.90;;;;;;5021304;28;20119;-61
2023/12/27 08:03:04;;;;;;;7.68;1.23;;;1.50;99.90;;;;;;5010306;28;20024;-60
2023/12/27 08:05:30;;;;;;;7.82;1.30;;;1.50;99.90;;;;;;5011945;28;20037;-60
2023/12/27 08:07:55;;;;;;;9.45;1.20;;;1.50;99.90;;;;;;5015311;28;20036;-60
2023/12/27 08:10:21;;;;;;;4.38;0.95;;;1.50;99.90;;;;;;5016015;28;20514;-60
2023/12/27 08:12:46;;;;;;;11.20;1.58;;;1.60;99.90;;;;;;5016758;28;20029;-60
2023/12/27 08:15:12;;;;;;;4.78;1.40;;;1.60;99.90;;;;;;5017183;28;20070;-59
2023/12/27 08:17:38;;;;;;;4.95;1.35;;;1.60;99.90;;;;;;5018562;28;20034;-59
2023/12/27 08:20:04;;;;;;;6.63;1.48;;;1.70;99.90;;;;;;5016452;28;20018;-60
2023/12/27 08:22:30;;;;;;;5.63;1.35;;;1.70;99.90;;;;;;5008927;28;20033;-60
2023/12/27 08:24:56;;;;;;;7.38;1.45;;;1.80;99.90;;;;;;5015381;28;20196;-60
2023/12/27 08:27:21;;;;;;;8.25;1.83;;;1.80;99.90;;;;;;5013679;28;20112;-59
2023/12/27 08:29:47;;;;;;;19.02;3.78;;;1.80;99.90;;;;;;5019543;28;20049;-60
2023/12/27 08:32:12;;;;;;;24.05;8.60;;;1.80;99.90;;;;;;5017719;28;20120;-60
2023/12/27 08:34:38;;;;;;;17.70;6.43;;;1.90;99.90;;;;;;5016368;28;20139;-58
2023/12/27 08:37:03;;;;;;;17.33;5.05;;;2.00;99.90;;;;;;5017470;28;20042;-59
2023/12/27 08:39:29;;;;;;;10.52;3.83;;;2.10;99.90;;;;;;5017475;28;20041;-59
2023/12/27 08:41:54;;;;;;;13.70;5.00;;;2.20;99.90;;;;;;5018254;28;20029;-58
2023/12/27 08:44:20;;;;;;;12.07;5.60;;;2.30;99.90;;;;;;5020634;28;20109;-68
2023/12/27 08:46:45;;;;;;;11.43;4.38;;;2.50;99.90;;;;;;5019316;28;20036;-72
2023/12/27 08:49:11;;;;;;;8.50;3.30;;;2.60;99.90;;;;;;5018608;28;20037;-59
2023/12/27 08:51:37;;;;;;;10.00;2.80;;;2.80;99.90;;;;;;5017377;28;20422;-59
2023/12/27 08:54:03;;;;;;;8.10;2.42;;;3.00;99.90;;;;;;5013532;28;20025;-59
2023/12/27 08:56:29;;;;;;;7.80;1.85;;;3.20;99.90;;;;;;5019130;28;20095;-64
2023/12/27 08:58:55;;;;;;;7.63;1.73;;;3.50;99.90;;;;;;5015578;28;20096;-58
2023/12/27 09:01:21;;;;;;;11.23;2.88;;;3.70;99.90;;;;;;5018771;28;20025;-59
2023/12/27 09:03:48;;;;;;;7.97;2.15;;;4.00;99.90;;;;;;5020476;28;20029;-59
2023/12/27 09:06:14;;;;;;;11.00;1.75;;;4.20;99.90;;;;;;5009658;28;20128;-60
2023/12/27 09:08:40;;;;;;;8.75;1.77;;;4.40;99.90;;;;;;5021040;28;20104;-59
2023/12/27 09:11:06;;;;;;;11.35;1.95;;;4.60;99.90;;;;;;5021979;28;20034;-59
2023/12/27 09:13:31;;;;;;;5.25;1.67;;;4.80;99.90;;;;;;5016915;28;20041;-61
2023/12/27 09:15:57;;;;;;;8.95;1.90;;;4.90;99.90;;;;;;5021685;28;20025;-61
2023/12/27 09:18:22;;;;;;;11.27;2.53;;;5.10;99.90;;;;;;5020580;28;20447;-59
2023/12/27 09:20:48;;;;;;;17.52;4.80;;;5.20;99.90;;;;;;5021250;28;20048;-59
2023/12/27 09:23:13;;;;;;;10.20;2.88;;;5.30;99.90;;;;;;5019953;28;20036;-61
2023/12/27 09:25:40;;;;;;;8.10;2.00;;;5.30;99.90;;;;;;5018957;28;20030;-57
2023/12/27 09:28:05;;;;;;;10.05;2.80;;;5.40;99.90;;;;;;5017951;28;20021;-57
2023/12/27 09:30:32;;;;;;;12.57;2.78;;;5.40;99.90;;;;;;5021091;28;20053;-59
2023/12/27 09:32:57;;;;;;;10.18;2.40;;;5.50;99.90;;;;;;5019093;28;20029;-57
2023/12/27 09:35:22;;;;;;;8.77;2.13;;;5.40;99.90;;;;;;5020510;28;20492;-59
2023/12/27 09:37:49;;;;;;;9.13;2.40;;;5.50;99.90;;;;;;5020829;28;20036;-59
2023/12/27 09:40:14;;;;;;;8.57;2.40;;;5.50;99.90;;;;;;5017128;28;20021;-60
2023/12/27 09:42:41;;;;;;;13.90;2.88;;;5.50;99.90;;;;;;5018214;28;20108;-58
2023/12/27 09:45:11;;;;;;;6.20;1.88;;;5.50;99.90;;;;;;5017998;28;20037;-58
2023/12/27 09:47:38;;;;;;;6.93;1.60;;;5.50;99.90;;;;;;5017418;28;20029;-60
2023/12/27 09:50:06;;;;;;;9.15;1.70;;;5.60;99.90;;;;;;5021223;28;20087;-59
2023/12/27 09:52:33;;;;;;;5.18;1.50;;;5.50;99.90;;;;;;5015063;28;20656;-59
2023/12/27 09:54:59;;;;;;;9.98;1.88;;;5.60;99.90;;;;;;5019710;28;20030;-59
2023/12/27 09:57:25;;;;;;;7.60;1.80;;;5.50;99.90;;;;;;5019823;28;20024;-58
2023/12/27 09:59:53;;;;;;;10.70;1.60;;;5.50;99.90;;;;;;5021421;28;20029;-59
2023/12/27 10:02:20;;;;;;;7.40;2.08;;;5.60;99.90;;;;;;5015824;28;20029;-60
2023/12/27 10:05:05;;;;;;;6.50;1.80;;;5.60;99.90;;;;;;5017749;28;20033;-58
2023/12/27 10:07:32;;;;;;;8.35;2.15;;;5.60;99.90;;;;;;5019167;28;20040;-58
2023/12/27 10:09:58;;;;;;;4.95;1.73;;;5.60;99.90;;;;;;5017829;28;20041;-59
2023/12/27 10:12:24;;;;;;;8.68;1.63;;;5.60;99.90;;;;;;5020426;28;20055;-59
2023/12/27 10:14:52;;;;;;;9.80;1.60;;;5.70;99.90;;;;;;5012765;28;20079;-58
2023/12/27 10:17:19;;;;;;;8.35;2.05;;;5.60;99.90;;;;;;5018528;28;20056;-60
2023/12/27 10:19:45;;;;;;;4.35;1.70;;;5.60;99.90;;;;;;5019812;28;20028;-58
2023/12/27 10:22:12;;;;;;;7.47;1.42;;;5.70;99.90;;;;;;5018989;28;20039;-57
2023/12/27 10:24:39;;;;;;;7.40;1.92;;;5.70;99.90;;;;;;5020226;28;20402;-59
2023/12/27 10:27:06;;;;;;;7.88;1.95;;;5.70;99.90;;;;;;5015087;28;20100;-56
2023/12/27 10:29:33;;;;;;;12.77;2.75;;;5.80;99.90;;;;;;5018587;28;20698;-56
2023/12/27 10:32:00;;;;;;;11.98;2.30;;;5.80;99.90;;;;;;5019769;28;20514;-56
2023/12/27 10:34:27;;;;;;;10.07;2.55;;;5.70;99.90;;;;;;5016663;28;20387;-57
2023/12/27 10:36:53;;;;;;;6.10;1.60;;;5.70;99.90;;;;;;5016344;28;20443;-56
2023/12/27 10:39:19;;;;;;;13.32;1.92;;;5.60;99.90;;;;;;5020522;28;20650;-56
2023/12/27 10:41:46;;;;;;;9.23;2.65;;;5.60;99.90;;;;;;5019825;28;20017;-58
2023/12/27 10:44:17;;;;;;;9.13;2.22;;;5.60;99.90;;;;;;5019142;28;20326;-59
2023/12/27 10:46:43;;;;;;;9.13;2.40;;;5.50;99.90;;;;;;5014434;28;20432;-56
2023/12/27 10:49:13;;;;;;;12.05;2.20;;;5.50;99.90;;;;;;5016872;28;20042;-59
2023/12/27 10:51:40;;;;;;;10.65;2.00;;;5.50;99.90;;;;;;5017401;28;20021;-59
2023/12/27 10:54:07;;;;;;;6.65;2.00;;;5.40;99.90;;;;;;5019490;28;20037;-57
2023/12/27 10:56:37;;;;;;;6.25;1.90;;;5.40;99.90;;;;;;4998371;28;20021;-57
2023/12/27 10:59:04;;;;;;;13.35;2.47;;;5.30;99.90;;;;;;5019257;28;20072;-59
2023/12/27 11:01:32;;;;;;;10.20;2.92;;;5.30;99.90;;;;;;5020175;28;20029;-58
2023/12/27 11:04:00;;;;;;;10.15;2.45;;;5.30;99.90;;;;;;5012119;28;20030;-59
2023/12/27 11:06:29;;;;;;;6.60;1.95;;;5.30;99.90;;;;;;5018535;28;20041;-55
2023/12/27 11:08:55;;;;;;;10.38;2.25;;;5.30;99.90;;;;;;5012082;28;20471;-58
2023/12/27 11:11:23;;;;;;;9.52;2.25;;;5.20;99.90;;;;;;5012652;28;20025;-58
2023/12/27 11:13:50;;;;;;;12.35;3.03;;;5.20;99.90;;;;;;5020088;28;20435;-58
2023/12/27 11:16:17;;;;;;;5.75;1.65;;;5.20;99.90;;;;;;5020459;28;20021;-59
2023/12/27 11:18:44;;;;;;;8.75;2.08;;;5.20;99.90;;;;;;5014713;28;20022;-59
2023/12/27 11:21:09;;;;;;;9.07;2.20;;;5.20;99.90;;;;;;5019928;28;20047;-59
2023/12/27 11:23:35;;;;;;;6.65;2.08;;;5.20;99.90;;;;;;5020136;28;20104;-59
2023/12/27 11:26:04;;;;;;;7.80;2.88;;;5.20;99.90;;;;;;5021691;28;20542;-59
2023/12/27 11:28:33;;;;;;;11.18;2.20;;;5.10;99.90;;;;;;5018594;28;20068;-58
2023/12/27 11:30:59;;;;;;;5.25;1.98;;;5.10;99.90;;;;;;5020168;28;20064;-58
2023/12/27 11:33:24;;;;;;;5.30;2.08;;;5.00;99.90;;;;;;5016522;28;20033;-58
2023/12/27 11:35:51;;;;;;;4.43;1.80;;;5.00;99.90;;;;;;5019832;28;20034;-59
2023/12/27 11:38:19;;;;;;;11.48;1.95;;;5.00;99.90;;;;;;5020003;28;20017;-58
2023/12/27 11:40:46;;;;;;;6.72;1.38;;;5.00;99.90;;;;;;5019918;28;20025;-58
2023/12/27 11:43:21;;;;;;;7.55;1.73;;;5.00;99.90;;;;;;5018679;28;20079;-59
2023/12/27 11:46:04;;;;;;;4.25;1.60;;;5.00;99.90;;;;;;5019580;28;20025;-57
2023/12/27 11:48:36;;;;;;;8.40;2.10;;;5.00;99.90;;;;;;5019853;28;20036;-59
2023/12/27 11:51:32;;;;;;;12.30;2.70;;;5.00;99.90;;;;;;5019861;28;20053;-58
2023/12/27 11:53:58;;;;;;;14.32;2.80;;;5.00;99.90;;;;;;5018439;28;20021;-58
2023/12/27 11:56:30;;;;;;;8.55;1.90;;;5.00;99.90;;;;;;5019880;28;20029;-59
2023/12/27 11:58:56;;;;;;;14.35;2.72;;;5.00;99.90;;;;;;5019486;28;20037;-59
2023/12/27 12:01:35;;;;;;;10.43;2.25;;;5.00;99.90;;;;;;5019259;28;20030;-58
2023/12/27 12:04:26;;;;;;;9.75;2.47;;;4.90;99.90;;;;;;5019585;28;20103;-60
2023/12/27 12:06:55;;;;;;;8.02;1.90;;;4.90;99.90;;;;;;5015193;28;20079;-59
2023/12/27 12:09:24;;;;;;;8.98;2.15;;;4.90;99.90;;;;;;5011247;28;20029;-59
2023/12/27 12:11:50;;;;;;;5.13;1.48;;;4.80;99.90;;;;;;5021750;28;20021;-58
2023/12/27 12:14:16;;;;;;;8.05;2.05;;;4.80;99.90;;;;;;5018166;28;20078;-57
2023/12/27 12:16:42;;;;;;;11.50;2.22;;;4.80;99.90;;;;;;5011891;28;20391;-59
2023/12/27 12:19:12;;;;;;;9.25;2.00;;;4.80;99.90;;;;;;5015678;28;20031;-56
2023/12/27 12:21:40;;;;;;;7.70;2.88;;;4.80;99.90;;;;;;5019530;28;20025;-57
2023/12/27 12:24:07;;;;;;;4.20;1.52;;;4.80;99.90;;;;;;5014748;28;20159;-59
2023/12/27 12:26:33;;;;;;;5.80;1.70;;;4.80;99.90;;;;;;5019254;28;20025;-58
2023/12/27 12:29:00;;;;;;;13.23;2.20;;;4.80;99.90;;;;;;5018241;28;20025;-58
2023/12/27 12:31:25;;;;;;;6.32;1.65;;;4.80;99.90;;;;;;5016551;28;20079;-58
2023/12/27 12:33:51;;;;;;;13.65;2.38;;;4.70;99.90;;;;;;5020967;28;20034;-59
2023/12/27 12:36:17;;;;;;;8.68;2.05;;;4.80;99.90;;;;;;5020621;28;20097;-59
2023/12/27 12:38:44;;;;;;;4.45;1.88;;;4.80;99.90;;;;;;5021843;28;20024;-58
2023/12/27 12:41:11;;;;;;;4.95;1.40;;;4.80;99.90;;;;;;5018998;28;20117;-58
2023/12/27 12:43:38;;;;;;;10.68;2.05;;;4.80;99.90;;;;;;5022161;28;20537;-58
2023/12/27 12:46:04;;;;;;;3.58;1.42;;;4.70;99.90;;;;;;5016667;28;20539;-58
2023/12/27 12:48:30;;;;;;;9.48;1.60;;;4.70;99.90;;;;;;5023179;28;20038;-58
2023/12/27 12:51:13;;;;;;;6.57;1.60;;;4.70;99.90;;;;;;5024713;28;20060;-59